Sparks, Oklahoma
Current Conditions -  °F | °C
As of 10:15 AM on Sunday 23 Nov 2014 (Local Time) from KCQB Reporting Station
Broken Clouds Broken Clouds  
Wind Chill: 63°   Ceiling: 1500
Heat Index: 63°   Visibility: 10mi
Dew Point: 59°   Wind: 14mph
Humidity: 88%   Direction: 190°S
Pressure: 29.4"   Gusts: 20mph
Location:  35.61°N, 96.82°W
Report Text: KCQB 231615Z AUTO 19012G17KT 10SM BKN015 17/15 A2940 RMK AO2
Loading
Personal Weather Stations






























Interactive Weather Map New forecast layout! Learn more

10-Day Weather Forecast

Advertisements
Track Severe Weather on mobile